Time;durP1;ratioP1;P1;durP2;ratioP2;P2;SDS_P1;SDS_P2;PMS_P1;PMS_P2;Temp;Humidity;BMP_temperature;BMP_pressure;BME280_temperature;BME280_humidity;BME280_pressure;Samples;Min_cycle;Max_cycle;Signal;HPM_P1;HPM_P2
2022/03/11 00:01:26;;;;;;;14.32;6.63;;;7.00;64.40;;;;;;5138206;27;36654;-52
2022/03/11 00:03:53;;;;;;;12.20;7.00;;;7.00;64.70;;;;;;5137981;27;38447;-51
2022/03/11 00:06:22;;;;;;;12.82;6.70;;;6.90;64.80;;;;;;5136395;27;36322;-52
2022/03/11 00:08:50;;;;;;;10.65;6.55;;;6.90;65.20;;;;;;5135500;27;35829;-49
2022/03/11 00:11:17;;;;;;;10.82;6.80;;;7.20;65.20;;;;;;5137751;27;36741;-52
2022/03/11 00:13:45;;;;;;;10.27;6.30;;;6.90;65.40;;;;;;5137615;27;38558;-49
2022/03/11 00:16:12;;;;;;;11.95;6.63;;;6.90;65.50;;;;;;5136852;27;37709;-51
2022/03/11 00:18:39;;;;;;;11.63;6.68;;;6.80;65.60;;;;;;5136841;27;37353;-50
2022/03/11 00:21:11;;;;;;;12.30;6.68;;;6.80;65.70;;;;;;5136242;27;36337;-52
2022/03/11 00:23:42;;;;;;;12.35;7.40;;;6.80;65.70;;;;;;5137100;27;37670;-49
2022/03/11 00:26:09;;;;;;;11.48;6.68;;;6.80;66.00;;;;;;5136664;27;37814;-47
2022/03/11 00:28:36;;;;;;;10.18;6.15;;;6.80;66.10;;;;;;5137827;27;38181;-50
2022/03/11 00:31:05;;;;;;;11.55;6.32;;;6.70;66.20;;;;;;5138489;27;36405;-51
2022/03/11 00:33:33;;;;;;;12.02;6.28;;;6.70;66.50;;;;;;5137400;27;37620;-51
2022/03/11 00:36:01;;;;;;;9.75;5.78;;;6.70;66.70;;;;;;5136599;27;38199;-48
2022/03/11 00:38:28;;;;;;;10.88;6.22;;;6.70;66.90;;;;;;5137898;27;36222;-48
2022/03/11 00:40:57;;;;;;;12.85;6.38;;;6.70;67.10;;;;;;5136982;27;36547;-51
2022/03/11 00:43:24;;;;;;;10.90;6.20;;;6.60;67.40;;;;;;5138186;27;36921;-52
2022/03/11 00:45:52;;;;;;;12.43;6.35;;;6.60;67.50;;;;;;5137380;27;37663;-49
2022/03/11 00:48:19;;;;;;;13.07;6.28;;;6.60;67.90;;;;;;5138872;27;35995;-50
2022/03/11 00:50:47;;;;;;;12.07;6.20;;;6.60;68.20;;;;;;5137690;27;37987;-47
2022/03/11 00:53:14;;;;;;;11.43;6.13;;;6.60;68.40;;;;;;5137197;27;37501;-52
2022/03/11 00:55:42;;;;;;;12.75;5.95;;;6.60;68.70;;;;;;5137023;27;39510;-51
2022/03/11 00:58:10;;;;;;;14.02;6.72;;;6.50;68.80;;;;;;5137785;27;37282;-51
2022/03/11 01:00:38;;;;;;;12.15;6.07;;;6.50;69.00;;;;;;5136438;27;36430;-49
2022/03/11 01:03:05;;;;;;;10.20;5.60;;;6.50;69.10;;;;;;5136937;27;38460;-50
2022/03/11 01:05:34;;;;;;;12.48;6.35;;;6.60;69.40;;;;;;5137471;27;20042;-48
2022/03/11 01:08:02;;;;;;;11.50;5.90;;;6.60;69.40;;;;;;5138025;27;37547;-51
2022/03/11 01:10:29;;;;;;;13.13;6.38;;;6.60;69.70;;;;;;5137382;27;35259;-50
2022/03/11 01:12:57;;;;;;;11.48;5.53;;;6.50;69.90;;;;;;5136880;27;42396;-49
2022/03/11 01:15:25;;;;;;;10.88;5.93;;;6.50;70.10;;;;;;5136727;27;37644;-48
2022/03/11 01:17:53;;;;;;;13.15;6.18;;;6.50;70.30;;;;;;5137199;27;37525;-51
2022/03/11 01:20:20;;;;;;;12.50;6.38;;;6.50;70.50;;;;;;5137248;27;38353;-48
2022/03/11 01:22:47;;;;;;;12.68;6.65;;;6.50;70.90;;;;;;5136633;27;37903;-49
2022/03/11 01:25:15;;;;;;;12.52;6.30;;;6.40;71.20;;;;;;5136880;27;38211;-51
2022/03/11 01:27:42;;;;;;;10.40;5.38;;;6.40;71.30;;;;;;5136478;27;36087;-49
2022/03/11 01:30:13;;;;;;;12.50;6.35;;;6.10;71.80;;;;;;5136998;27;37466;-49
2022/03/11 01:32:42;;;;;;;12.57;6.95;;;6.40;72.00;;;;;;5136788;27;37031;-49
2022/03/11 01:35:11;;;;;;;11.27;6.38;;;6.40;72.20;;;;;;5136173;27;39997;-49
2022/03/11 01:37:38;;;;;;;10.90;6.50;;;6.30;72.70;;;;;;5136028;27;38007;-49
2022/03/11 01:40:06;;;;;;;14.23;6.57;;;6.30;72.80;;;;;;5136555;27;36342;-51
2022/03/11 01:42:34;;;;;;;13.82;7.25;;;6.30;73.00;;;;;;5134403;27;38389;-49
2022/03/11 01:45:01;;;;;;;15.63;7.13;;;6.30;73.40;;;;;;5135042;27;38422;-47
2022/03/11 01:47:29;;;;;;;13.88;6.75;;;6.20;73.50;;;;;;5135540;27;37335;-50
2022/03/11 01:49:57;;;;;;;11.32;6.43;;;6.30;73.90;;;;;;5135637;27;36437;-47
2022/03/11 01:52:25;;;;;;;12.30;6.60;;;6.30;74.10;;;;;;5136309;27;37650;-51
2022/03/11 01:54:54;;;;;;;12.10;6.65;;;6.30;74.30;;;;;;5136720;27;37643;-50
2022/03/11 01:57:21;;;;;;;11.07;6.63;;;6.20;74.40;;;;;;5134432;27;37259;-50
2022/03/11 01:59:49;;;;;;;12.05;6.50;;;6.30;74.60;;;;;;5136112;27;36769;-50
2022/03/11 02:02:17;;;;;;;16.52;7.55;;;6.20;74.60;;;;;;5135763;27;39594;-50
2022/03/11 02:04:44;;;;;;;14.52;7.72;;;6.20;75.10;;;;;;5136314;27;38616;-50
2022/03/11 02:07:13;;;;;;;14.70;8.00;;;6.20;75.40;;;;;;5135904;27;37360;-50
2022/03/11 02:09:41;;;;;;;14.35;7.85;;;6.10;76.00;;;;;;5134831;27;38394;-51
2022/03/11 02:12:09;;;;;;;14.88;7.43;;;6.10;76.20;;;;;;5135661;27;40436;-50
2022/03/11 02:14:36;;;;;;;14.77;7.85;;;6.10;76.40;;;;;;5135201;27;37973;-47
2022/03/11 02:17:04;;;;;;;12.77;7.40;;;6.10;76.30;;;;;;5133772;27;39371;-50
2022/03/11 02:19:31;;;;;;;17.50;8.15;;;6.10;76.70;;;;;;5135462;27;36217;-48
2022/03/11 02:22:02;;;;;;;16.13;7.90;;;6.00;77.00;;;;;;5133356;27;38072;-50
2022/03/11 02:24:31;;;;;;;13.48;7.88;;;6.00;77.40;;;;;;5134728;27;37620;-49
2022/03/11 02:26:58;;;;;;;15.10;8.60;;;6.00;77.70;;;;;;5134501;27;37390;-51
2022/03/11 02:29:26;;;;;;;13.05;8.27;;;5.90;77.70;;;;;;5135743;27;37182;-49
2022/03/11 02:31:53;;;;;;;18.70;9.25;;;5.90;77.90;;;;;;5134294;27;38429;-51
2022/03/11 02:34:21;;;;;;;17.33;9.50;;;5.90;78.10;;;;;;5135360;27;37652;-47
2022/03/11 02:36:48;;;;;;;13.48;8.73;;;5.90;78.50;;;;;;5134668;27;38844;-50
2022/03/11 02:39:16;;;;;;;14.25;8.52;;;5.90;78.70;;;;;;5137587;27;37873;-49
2022/03/11 02:41:47;;;;;;;15.60;9.68;;;5.90;79.00;;;;;;5137511;27;37445;-47
2022/03/11 02:44:15;;;;;;;15.80;9.35;;;5.90;79.10;;;;;;5139043;27;38886;-51
2022/03/11 02:46:42;;;;;;;18.73;9.70;;;5.90;79.10;;;;;;5139381;27;37907;-51
2022/03/11 02:49:09;;;;;;;16.90;10.20;;;5.80;79.30;;;;;;5139256;27;36481;-51
2022/03/11 02:51:36;;;;;;;15.52;8.77;;;5.80;79.30;;;;;;5139779;27;37557;-50
2022/03/11 02:54:04;;;;;;;16.85;10.15;;;5.80;79.50;;;;;;5139493;27;39447;-50
2022/03/11 02:56:31;;;;;;;16.23;9.75;;;5.80;79.70;;;;;;5138272;27;37511;-51
2022/03/11 02:59:00;;;;;;;18.00;10.93;;;5.80;79.40;;;;;;5139144;27;38040;-51
2022/03/11 03:01:27;;;;;;;19.05;10.68;;;5.80;79.90;;;;;;5136014;27;37659;-50
2022/03/11 03:03:55;;;;;;;18.55;10.30;;;5.80;79.70;;;;;;5138822;27;36527;-50
2022/03/11 03:06:22;;;;;;;20.00;11.05;;;5.80;80.10;;;;;;5136475;27;37384;-49
2022/03/11 03:08:49;;;;;;;22.42;11.30;;;5.70;79.90;;;;;;5137882;27;38238;-50
2022/03/11 03:11:17;;;;;;;18.45;10.63;;;5.70;80.10;;;;;;5138904;27;36129;-47
2022/03/11 03:13:44;;;;;;;19.45;11.70;;;5.70;80.20;;;;;;5137770;27;37505;-50
2022/03/11 03:16:13;;;;;;;22.63;11.73;;;5.70;80.40;;;;;;5137918;27;37169;-51
2022/03/11 03:18:40;;;;;;;19.95;11.45;;;5.70;81.10;;;;;;5137983;27;36958;-50
2022/03/11 03:21:08;;;;;;;22.67;13.10;;;5.60;80.90;;;;;;5137887;27;37324;-48
2022/03/11 03:23:35;;;;;;;19.95;11.43;;;5.60;80.80;;;;;;5139524;27;37255;-50
2022/03/11 03:26:02;;;;;;;21.75;12.45;;;5.60;81.10;;;;;;5138850;27;36233;-51
2022/03/11 03:28:30;;;;;;;21.27;11.85;;;5.60;81.30;;;;;;5138082;27;37142;-50
2022/03/11 03:30:57;;;;;;;20.48;12.48;;;5.50;81.40;;;;;;5136995;27;38040;-51
2022/03/11 03:33:26;;;;;;;19.38;12.07;;;5.50;81.50;;;;;;5138159;27;36744;-51
2022/03/11 03:35:53;;;;;;;23.25;13.25;;;5.50;81.60;;;;;;5137552;27;37462;-51
2022/03/11 03:38:21;;;;;;;22.00;12.20;;;5.50;81.80;;;;;;5137963;27;37361;-51
2022/03/11 03:40:49;;;;;;;22.67;13.75;;;5.40;82.40;;;;;;5137526;27;39387;-48
2022/03/11 03:43:16;;;;;;;24.15;12.73;;;5.40;81.80;;;;;;5138173;27;38443;-48
2022/03/11 03:45:43;;;;;;;21.85;12.82;;;5.40;82.10;;;;;;5136538;27;38885;-51
2022/03/11 03:48:11;;;;;;;20.92;12.95;;;5.40;82.20;;;;;;5134908;27;36509;-51
2022/03/11 03:50:39;;;;;;;22.80;13.48;;;5.40;82.10;;;;;;5134761;27;36361;-51
2022/03/11 03:53:07;;;;;;;23.15;13.27;;;5.40;82.50;;;;;;5136059;27;37728;-50
2022/03/11 03:55:35;;;;;;;20.17;12.20;;;5.30;82.40;;;;;;5138567;27;38608;-49
2022/03/11 03:58:02;;;;;;;22.48;13.18;;;5.30;82.70;;;;;;5137634;27;36615;-50
2022/03/11 04:00:29;;;;;;;21.67;13.30;;;5.30;82.90;;;;;;5137759;27;37432;-51
2022/03/11 04:02:57;;;;;;;22.60;13.98;;;5.20;83.20;;;;;;5137614;27;38203;-51
2022/03/11 04:05:24;;;;;;;21.65;13.13;;;5.30;82.70;;;;;;5137711;27;37315;-49
2022/03/11 04:07:53;;;;;;;23.67;13.48;;;5.20;82.80;;;;;;5138092;27;35497;-49
2022/03/11 04:10:20;;;;;;;23.98;12.48;;;5.20;83.00;;;;;;5137827;27;38747;-47
2022/03/11 04:12:48;;;;;;;22.75;13.57;;;5.20;83.00;;;;;;5138637;27;38723;-49
2022/03/11 04:15:15;;;;;;;23.10;14.52;;;5.20;83.30;;;;;;5137355;27;37243;-47
2022/03/11 04:17:43;;;;;;;21.58;13.00;;;5.20;83.30;;;;;;5135395;27;36703;-50
2022/03/11 04:20:11;;;;;;;23.33;14.75;;;5.20;83.20;;;;;;5137435;27;37449;-51
2022/03/11 04:22:42;;;;;;;23.65;12.93;;;5.10;83.40;;;;;;5137023;27;37992;-49
2022/03/11 04:25:12;;;;;;;23.58;12.75;;;5.10;83.40;;;;;;5137670;27;37731;-51
2022/03/11 04:27:40;;;;;;;22.85;14.32;;;5.10;83.70;;;;;;5137729;27;36792;-50
2022/03/11 04:30:09;;;;;;;22.83;13.63;;;5.10;83.40;;;;;;5137335;27;36568;-49
2022/03/11 04:32:36;;;;;;;21.42;14.70;;;5.00;83.40;;;;;;5137122;27;36635;-51
2022/03/11 04:35:04;;;;;;;21.55;13.93;;;5.00;83.40;;;;;;5136559;27;37996;-48
2022/03/11 04:37:31;;;;;;;23.05;14.68;;;5.00;83.40;;;;;;5137152;27;36871;-50
2022/03/11 04:39:59;;;;;;;21.27;13.07;;;5.00;83.60;;;;;;5136886;27;38075;-50
2022/03/11 04:42:28;;;;;;;21.40;13.60;;;5.00;83.60;;;;;;5136928;27;37896;-48
2022/03/11 04:44:55;;;;;;;23.15;14.15;;;4.90;83.80;;;;;;5137228;27;37376;-49
2022/03/11 04:47:23;;;;;;;24.95;14.70;;;4.90;83.50;;;;;;5136648;27;36860;-50
2022/03/11 04:49:50;;;;;;;22.88;14.18;;;4.90;83.70;;;;;;5137281;27;37532;-51
2022/03/11 04:52:17;;;;;;;23.35;14.18;;;4.90;83.80;;;;;;5137337;27;37594;-48
2022/03/11 04:54:45;;;;;;;22.35;13.65;;;4.50;83.50;;;;;;5136196;27;38165;-48
2022/03/11 04:57:12;;;;;;;26.60;14.50;;;4.90;83.70;;;;;;5135423;27;35619;-49
2022/03/11 04:59:42;;;;;;;23.27;13.82;;;4.90;84.10;;;;;;5135988;27;37144;-47
2022/03/11 05:02:09;;;;;;;23.52;14.48;;;4.80;83.90;;;;;;5134175;27;38304;-47
2022/03/11 05:04:36;;;;;;;21.73;13.88;;;4.80;83.70;;;;;;5136565;27;37612;-47
2022/03/11 05:07:07;;;;;;;24.45;14.77;;;4.80;83.70;;;;;;5136583;27;37143;-47
2022/03/11 05:09:35;;;;;;;21.98;13.50;;;4.80;83.90;;;;;;5137003;27;37595;-51
2022/03/11 05:12:02;;;;;;;22.17;13.95;;;4.80;83.80;;;;;;5135584;27;40082;-50
2022/03/11 05:14:29;;;;;;;23.42;14.45;;;4.70;83.90;;;;;;5136531;27;37450;-50
2022/03/11 05:16:58;;;;;;;25.98;15.90;;;4.70;84.00;;;;;;5136231;27;36770;-49
2022/03/11 05:19:26;;;;;;;21.75;13.90;;;4.70;84.10;;;;;;5135960;27;36417;-52
2022/03/11 05:21:53;;;;;;;23.98;14.50;;;4.60;84.00;;;;;;5136097;27;39615;-47
2022/03/11 05:24:21;;;;;;;23.25;13.98;;;4.60;84.10;;;;;;5136676;27;37678;-48
2022/03/11 05:26:49;;;;;;;23.13;14.00;;;4.50;84.10;;;;;;5137184;27;37993;-50
2022/03/11 05:29:16;;;;;;;24.80;14.82;;;4.60;84.40;;;;;;5136683;27;37262;-51
2022/03/11 05:31:44;;;;;;;23.80;14.50;;;4.60;84.30;;;;;;5136804;27;38300;-51
2022/03/11 05:34:12;;;;;;;24.80;14.55;;;4.60;84.30;;;;;;5136629;27;37531;-48
2022/03/11 05:36:40;;;;;;;27.42;14.48;;;4.50;84.20;;;;;;5135297;27;36708;-50
2022/03/11 05:39:07;;;;;;;24.23;14.35;;;4.50;84.40;;;;;;5136238;27;38202;-50
2022/03/11 05:41:34;;;;;;;22.00;13.43;;;4.50;84.40;;;;;;5136238;27;38535;-49
2022/03/11 05:44:02;;;;;;;22.58;13.68;;;4.50;84.30;;;;;;5136017;27;37413;-51
2022/03/11 05:46:29;;;;;;;24.65;14.55;;;4.50;84.70;;;;;;5136869;27;35661;-49
2022/03/11 05:48:56;;;;;;;26.10;14.30;;;4.40;84.60;;;;;;5135626;27;37350;-50
2022/03/11 05:51:25;;;;;;;24.17;14.82;;;4.40;84.40;;;;;;5136947;27;38500;-50
2022/03/11 05:53:52;;;;;;;27.92;14.70;;;4.40;84.80;;;;;;5136284;27;38488;-52
2022/03/11 05:56:20;;;;;;;24.60;14.77;;;4.40;84.80;;;;;;5136044;27;36523;-50
2022/03/11 05:58:49;;;;;;;24.58;15.25;;;4.40;84.90;;;;;;5135651;27;38752;-50
2022/03/11 06:01:17;;;;;;;22.50;13.43;;;4.40;84.70;;;;;;5134063;27;38789;-51
2022/03/11 06:03:45;;;;;;;21.02;13.63;;;4.30;84.80;;;;;;5134883;27;37407;-47
2022/03/11 06:06:13;;;;;;;22.33;13.65;;;4.30;84.80;;;;;;5135314;27;39081;-50
2022/03/11 06:08:43;;;;;;;22.38;14.57;;;4.30;84.70;;;;;;5136380;27;37544;-49
2022/03/11 06:11:10;;;;;;;22.33;14.07;;;4.40;85.40;;;;;;5134800;27;40562;-50
2022/03/11 06:13:38;;;;;;;26.60;14.52;;;4.50;85.00;;;;;;5137232;27;37796;-50
2022/03/11 06:16:06;;;;;;;25.27;14.57;;;4.40;84.00;;;;;;5140416;27;35030;-50
2022/03/11 06:18:33;;;;;;;24.27;14.20;;;4.50;83.90;;;;;;5137230;27;39468;-48
2022/03/11 06:21:01;;;;;;;22.27;13.57;;;4.60;83.50;;;;;;5139796;27;38294;-51
2022/03/11 06:23:30;;;;;;;21.77;14.07;;;4.60;83.10;;;;;;5139489;27;38845;-51
2022/03/11 06:25:59;;;;;;;21.13;13.25;;;4.70;82.90;;;;;;5138982;27;36603;-50
2022/03/11 06:28:26;;;;;;;24.58;15.32;;;4.70;82.60;;;;;;5139276;27;37563;-50
2022/03/11 06:30:54;;;;;;;25.63;14.10;;;4.60;82.30;;;;;;5137271;27;38714;-50
2022/03/11 06:33:21;;;;;;;22.40;13.73;;;4.90;82.00;;;;;;5138782;27;36122;-51
2022/03/11 06:35:49;;;;;;;23.55;15.40;;;5.00;81.40;;;;;;5137545;27;36962;-51
2022/03/11 06:38:16;;;;;;;20.70;13.30;;;5.10;80.80;;;;;;5137387;27;38259;-50
2022/03/11 06:40:44;;;;;;;21.63;13.45;;;5.20;80.30;;;;;;5138815;27;38012;-51
2022/03/11 06:43:12;;;;;;;21.48;13.48;;;5.30;79.60;;;;;;5139171;27;37930;-50
2022/03/11 06:45:40;;;;;;;27.58;15.25;;;5.30;79.10;;;;;;5139453;27;37683;-50
2022/03/11 06:48:07;;;;;;;22.60;15.13;;;5.40;78.60;;;;;;5138390;27;38072;-50
2022/03/11 06:50:34;;;;;;;21.23;13.57;;;5.40;78.70;;;;;;5138361;27;37895;-49
2022/03/11 06:53:02;;;;;;;20.40;13.57;;;5.40;78.20;;;;;;5137153;27;38479;-51
2022/03/11 06:55:29;;;;;;;22.42;13.88;;;5.50;78.10;;;;;;5137617;27;36645;-52
2022/03/11 06:57:56;;;;;;;22.30;14.18;;;5.60;77.90;;;;;;5137066;27;37248;-50
2022/03/11 07:00:25;;;;;;;23.98;14.20;;;5.60;77.60;;;;;;5137535;27;38466;-51
2022/03/11 07:02:53;;;;;;;21.50;13.63;;;5.60;77.50;;;;;;5136935;27;37549;-50
2022/03/11 07:05:20;;;;;;;26.00;14.40;;;5.70;77.30;;;;;;5137928;27;36531;-49
2022/03/11 07:07:47;;;;;;;22.80;13.88;;;5.80;76.60;;;;;;5138856;27;36171;-51
2022/03/11 07:10:16;;;;;;;24.13;14.88;;;5.80;76.10;;;;;;5137629;27;38745;-49
2022/03/11 07:12:44;;;;;;;24.15;13.20;;;5.90;75.70;;;;;;5138200;27;39989;-51
2022/03/11 07:15:11;;;;;;;21.63;13.55;;;6.10;75.30;;;;;;5137625;27;37156;-50
2022/03/11 07:17:40;;;;;;;23.40;13.70;;;6.10;74.60;;;;;;5136871;27;36290;-50
2022/03/11 07:20:08;;;;;;;21.98;13.90;;;6.20;74.70;;;;;;5136726;27;36490;-51
2022/03/11 07:22:35;;;;;;;23.45;13.82;;;6.30;74.10;;;;;;5134432;27;36137;-51
2022/03/11 07:25:04;;;;;;;21.52;14.20;;;6.40;73.80;;;;;;5133641;27;36807;-51
2022/03/11 07:27:31;;;;;;;21.48;13.82;;;6.60;73.60;;;;;;5136171;27;37342;-52
2022/03/11 07:29:58;;;;;;;22.77;13.60;;;6.60;72.90;;;;;;5133080;27;37255;-51
2022/03/11 07:32:26;;;;;;;20.92;13.07;;;6.60;72.30;;;;;;5135744;27;36593;-48
2022/03/11 07:34:54;;;;;;;24.92;14.18;;;6.70;72.30;;;;;;5137294;27;36678;-51
2022/03/11 07:37:22;;;;;;;24.17;14.15;;;6.70;71.20;;;;;;5134924;27;37646;-49
2022/03/11 07:39:49;;;;;;;25.33;13.73;;;6.80;70.90;;;;;;5135684;27;36391;-48
2022/03/11 07:42:17;;;;;;;23.98;14.60;;;7.00;71.00;;;;;;5132980;27;40804;-51
2022/03/11 07:44:45;;;;;;;21.08;13.75;;;7.00;69.70;;;;;;5134886;27;36977;-49
2022/03/11 07:47:12;;;;;;;19.90;12.73;;;7.20;69.10;;;;;;5130946;27;37833;-50
2022/03/11 07:49:40;;;;;;;21.30;13.35;;;7.30;68.30;;;;;;5134470;27;37980;-50
2022/03/11 07:52:14;;;;;;;23.45;14.30;;;7.30;67.70;;;;;;5134928;27;37204;-52
2022/03/11 07:54:42;;;;;;;24.17;14.50;;;7.20;67.50;;;;;;5136038;27;37817;-50
2022/03/11 07:57:10;;;;;;;22.48;13.80;;;7.10;68.00;;;;;;5132925;27;37603;-49
2022/03/11 07:59:40;;;;;;;21.23;13.65;;;7.10;68.00;;;;;;5135061;27;38999;-50
2022/03/11 08:02:08;;;;;;;20.80;13.55;;;7.10;67.50;;;;;;5133997;27;38216;-50
2022/03/11 08:04:35;;;;;;;20.38;12.88;;;7.10;67.60;;;;;;5134013;27;36744;-50
2022/03/11 08:07:06;;;;;;;22.05;13.75;;;7.30;68.00;;;;;;5132687;27;36140;-49
2022/03/11 08:09:35;;;;;;;22.77;13.38;;;7.60;66.50;;;;;;5132675;27;37280;-51
2022/03/11 08:12:03;;;;;;;19.00;12.43;;;7.90;65.10;;;;;;5129294;27;36104;-51
2022/03/11 08:14:30;;;;;;;20.13;13.38;;;8.20;64.60;;;;;;5132129;27;36151;-49
2022/03/11 08:16:58;;;;;;;23.30;13.82;;;8.40;64.20;;;;;;5134312;27;37626;-49
2022/03/11 08:19:26;;;;;;;21.77;13.18;;;8.50;63.60;;;;;;5133869;27;37663;-48
2022/03/11 08:21:53;;;;;;;20.67;13.55;;;8.70;63.20;;;;;;5133318;27;37767;-49
2022/03/11 08:24:22;;;;;;;22.90;14.07;;;8.90;62.50;;;;;;5135809;27;36741;-48
2022/03/11 08:26:51;;;;;;;22.48;13.80;;;9.00;62.00;;;;;;5134650;27;38831;-48
2022/03/11 08:29:20;;;;;;;20.88;14.02;;;9.20;61.30;;;;;;5135955;27;39481;-51
2022/03/11 08:31:48;;;;;;;21.83;14.02;;;9.50;59.20;;;;;;5135828;27;36347;-51
2022/03/11 08:34:17;;;;;;;21.63;13.82;;;9.90;58.00;;;;;;5135217;27;35519;-48
2022/03/11 08:36:44;;;;;;;20.58;13.52;;;10.10;57.10;;;;;;5134342;27;39138;-51
2022/03/11 08:39:12;;;;;;;19.95;13.75;;;10.30;55.00;;;;;;5136011;27;38579;-50
2022/03/11 08:41:39;;;;;;;25.48;14.30;;;10.50;55.50;;;;;;5134012;27;37336;-47
2022/03/11 08:44:08;;;;;;;19.80;13.35;;;10.60;53.50;;;;;;5135838;27;37334;-50
2022/03/11 08:46:37;;;;;;;19.23;13.43;;;10.90;53.50;;;;;;5133992;27;36284;-49
2022/03/11 08:49:06;;;;;;;23.10;13.95;;;11.10;53.70;;;;;;5135141;27;36695;-51
2022/03/11 08:51:34;;;;;;;19.92;13.57;;;11.30;53.30;;;;;;5133432;27;38373;-51
2022/03/11 08:54:02;;;;;;;22.50;13.75;;;11.40;52.80;;;;;;5134879;27;36841;-50
2022/03/11 08:56:29;;;;;;;22.17;13.68;;;11.50;50.40;;;;;;5134458;27;36315;-48
2022/03/11 08:58:56;;;;;;;20.15;13.25;;;11.80;50.00;;;;;;5134917;27;40032;-51
2022/03/11 09:01:25;;;;;;;17.92;12.45;;;12.00;48.10;;;;;;5134183;27;38964;-52
2022/03/11 09:03:52;;;;;;;21.90;12.93;;;12.40;47.60;;;;;;5134873;27;36892;-50
2022/03/11 09:06:20;;;;;;;22.35;13.32;;;12.50;46.10;;;;;;5134425;27;36326;-52
2022/03/11 09:08:47;;;;;;;20.92;13.32;;;12.70;45.60;;;;;;5134136;27;37919;-52
2022/03/11 09:11:15;;;;;;;22.10;13.45;;;12.80;45.80;;;;;;5135425;27;38715;-52
2022/03/11 09:13:43;;;;;;;17.73;13.40;;;12.90;45.60;;;;;;5134624;27;35729;-51
2022/03/11 09:16:10;;;;;;;21.05;14.20;;;13.00;45.70;;;;;;5134479;27;36112;-49
2022/03/11 09:18:39;;;;;;;21.13;13.85;;;13.10;45.20;;;;;;5131988;27;37873;-51
2022/03/11 09:21:06;;;;;;;20.70;13.27;;;13.10;44.20;;;;;;5132738;27;37593;-53
2022/03/11 09:23:34;;;;;;;18.27;12.85;;;13.10;44.30;;;;;;5133363;27;38333;-54
2022/03/11 09:26:01;;;;;;;23.23;13.05;;;13.00;44.40;;;;;;5134194;27;37576;-48
2022/03/11 09:28:31;;;;;;;20.30;13.38;;;12.90;43.80;;;;;;5134401;27;38247;-51
2022/03/11 09:30:58;;;;;;;19.63;12.80;;;13.00;44.70;;;;;;5134659;27;37610;-50
2022/03/11 09:33:26;;;;;;;19.17;13.05;;;13.00;44.90;;;;;;5133593;27;36789;-51
2022/03/11 09:35:54;;;;;;;19.08;13.88;;;12.90;44.50;;;;;;5130744;27;38705;-53
2022/03/11 09:38:22;;;;;;;19.75;13.45;;;12.90;44.80;;;;;;5131903;27;37714;-49
2022/03/11 09:40:52;;;;;;;17.77;13.25;;;12.80;44.10;;;;;;5132163;27;38364;-51
2022/03/11 09:43:20;;;;;;;21.85;15.35;;;12.70;43.40;;;;;;5135405;27;35824;-49
2022/03/11 09:45:48;;;;;;;19.58;13.65;;;12.70;44.30;;;;;;5135032;27;38513;-50
2022/03/11 09:48:16;;;;;;;20.60;13.82;;;12.70;44.40;;;;;;5135220;27;36461;-51
2022/03/11 09:50:44;;;;;;;19.80;13.88;;;12.70;45.00;;;;;;5137790;27;36289;-51
2022/03/11 09:53:14;;;;;;;22.42;13.88;;;12.80;44.40;;;;;;5137837;27;36972;-51
2022/03/11 09:55:42;;;;;;;21.85;13.55;;;12.90;43.40;;;;;;5136396;27;38182;-51
2022/03/11 09:58:09;;;;;;;17.88;13.13;;;12.90;42.90;;;;;;5133998;27;36344;-47
2022/03/11 10:00:37;;;;;;;20.75;13.52;;;13.00;42.30;;;;;;5137752;27;37287;-50
2022/03/11 10:03:04;;;;;;;23.65;14.30;;;13.00;42.00;;;;;;5136091;27;37698;-52
2022/03/11 10:05:48;;;;;;;23.90;13.98;;;13.00;42.00;;;;;;5135342;27;36378;-50
2022/03/11 10:08:17;;;;;;;;;;;13.20;41.90;;;;;;5137179;27;37784;-52
2022/03/11 10:10:45;;;;;;;24.35;13.70;;;13.40;40.20;;;;;;5137374;27;38290;-49
2022/03/11 10:13:13;;;;;;;20.67;13.45;;;13.70;41.10;;;;;;5136174;27;34935;-54
2022/03/11 10:15:42;;;;;;;20.60;12.65;;;13.70;40.00;;;;;;5135953;27;36229;-50
2022/03/11 10:18:10;;;;;;;19.48;14.40;;;13.80;40.40;;;;;;5136392;27;36540;-50
2022/03/11 10:20:37;;;;;;;19.17;14.02;;;13.60;40.70;;;;;;5135841;27;37013;-48
2022/03/11 10:23:11;;;;;;;22.00;13.65;;;13.60;41.70;;;;;;5137055;27;36712;-51
2022/03/11 10:25:40;;;;;;;21.67;14.48;;;13.40;41.20;;;;;;5131366;27;38110;-47
2022/03/11 10:28:09;;;;;;;21.55;14.73;;;13.30;42.00;;;;;;5135711;27;38376;-51
2022/03/11 10:30:38;;;;;;;20.92;14.20;;;13.30;41.90;;;;;;5135836;27;38270;-52
2022/03/11 10:33:07;;;;;;;21.40;13.98;;;13.20;41.80;;;;;;5136652;27;36865;-50
2022/03/11 10:35:37;;;;;;;20.48;14.07;;;13.20;41.60;;;;;;5136127;27;37195;-51
2022/03/11 10:38:07;;;;;;;21.42;14.30;;;13.30;41.60;;;;;;5135725;27;39060;-49
2022/03/11 10:40:36;;;;;;;19.55;13.32;;;13.30;41.60;;;;;;5137485;27;38923;-51
2022/03/11 10:43:17;;;;;;;19.98;14.23;;;13.50;40.80;;;;;;5136394;27;36724;-49
2022/03/11 10:45:49;;;;;;;19.73;14.40;;;13.70;40.50;;;;;;5136103;27;37889;-52
2022/03/11 10:48:18;;;;;;;20.07;13.47;;;14.00;40.80;;;;;;5136124;27;37506;-50
2022/03/11 10:50:46;;;;;;;25.85;13.38;;;14.00;40.70;;;;;;5137267;27;39171;-50
2022/03/11 10:53:14;;;;;;;21.08;14.63;;;13.90;41.10;;;;;;5137352;27;37594;-51
2022/03/11 10:55:43;;;;;;;18.98;13.70;;;13.80;40.50;;;;;;5136592;27;37622;-49
2022/03/11 10:58:16;;;;;;;19.58;14.20;;;13.70;41.80;;;;;;5135768;27;37928;-51
2022/03/11 11:00:45;;;;;;;28.77;14.38;;;13.60;41.60;;;;;;5134395;27;40616;-48
2022/03/11 11:03:13;;;;;;;21.20;13.45;;;13.40;41.60;;;;;;5133065;27;35732;-51
2022/03/11 11:05:41;;;;;;;22.45;14.05;;;13.50;41.70;;;;;;5133289;27;36286;-50
2022/03/11 11:08:10;;;;;;;19.60;13.77;;;13.60;41.10;;;;;;5133219;27;37623;-49
2022/03/11 11:10:41;;;;;;;19.30;14.23;;;13.80;40.80;;;;;;5136178;27;39739;-53
2022/03/11 11:13:09;;;;;;;20.88;14.32;;;13.90;40.60;;;;;;5135809;27;36842;-51
2022/03/11 11:15:38;;;;;;;22.27;14.65;;;13.80;40.00;;;;;;5135356;27;38806;-49
2022/03/11 11:18:13;;;;;;;21.40;13.45;;;13.80;39.90;;;;;;5134143;27;38928;-48
2022/03/11 11:20:47;;;;;;;22.00;13.45;;;13.70;39.70;;;;;;5134681;27;38954;-48
2022/03/11 11:23:15;;;;;;;;;;;13.50;40.30;;;;;;5134370;27;36793;-50
2022/03/11 11:25:44;;;;;;;20.98;13.38;;;13.40;41.80;;;;;;5134965;27;37534;-51
2022/03/11 11:28:15;;;;;;;20.20;13.63;;;13.40;41.50;;;;;;5134719;27;37610;-49
2022/03/11 11:30:43;;;;;;;20.27;13.20;;;13.30;40.60;;;;;;5135087;27;38599;-49
2022/03/11 11:33:13;;;;;;;19.33;13.60;;;13.30;40.60;;;;;;5135145;27;36629;-49
2022/03/11 11:35:43;;;;;;;20.33;13.63;;;13.30;40.20;;;;;;5135048;27;38008;-49
2022/03/11 11:38:31;;;;;;;22.67;13.68;;;13.30;40.80;;;;;;5134085;27;37712;-50
2022/03/11 11:41:00;;;;;;;22.10;13.80;;;13.40;40.40;;;;;;5136600;27;37696;-48
2022/03/11 11:43:29;;;;;;;21.55;13.75;;;13.60;40.40;;;;;;5135043;27;35558;-49
2022/03/11 11:46:03;;;;;;;24.23;14.15;;;13.70;40.10;;;;;;5136280;27;37430;-50
2022/03/11 11:48:58;;;;;;;18.52;13.52;;;13.70;41.20;;;;;;5137126;27;37775;-51
2022/03/11 11:51:55;;;;;;;19.80;13.23;;;13.60;40.10;;;;;;5135560;27;39774;-47
2022/03/11 11:54:42;;;;;;;22.30;13.65;;;13.30;40.20;;;;;;5136149;27;37665;-50
2022/03/11 11:57:26;;;;;;;22.05;13.95;;;13.10;40.90;;;;;;5135688;27;37276;-48
2022/03/11 11:59:54;;;;;;;19.52;12.52;;;13.10;41.80;;;;;;5135048;27;38367;-48
2022/03/11 12:02:35;;;;;;;19.42;13.13;;;12.90;41.10;;;;;;5135163;27;37925;-49
2022/03/11 12:05:41;;;;;;;21.50;13.82;;;12.80;42.20;;;;;;5136083;27;36652;-49
2022/03/11 12:08:08;;;;;;;20.88;14.18;;;12.80;42.50;;;;;;5135706;27;38519;-50
2022/03/11 12:10:49;;;;;;;21.20;13.90;;;12.60;42.80;;;;;;5135740;27;38259;-49
2022/03/11 12:13:32;;;;;;;19.75;12.77;;;12.60;42.70;;;;;;5136330;27;37557;-47
2022/03/11 12:16:00;;;;;;;19.27;13.15;;;12.60;42.50;;;;;;5135811;27;37333;-50
2022/03/11 12:18:40;;;;;;;17.92;12.90;;;12.50;42.90;;;;;;5137425;27;38023;-50
2022/03/11 12:21:22;;;;;;;19.85;13.07;;;12.60;43.30;;;;;;5135296;27;37273;-48
2022/03/11 12:23:49;;;;;;;21.85;13.57;;;12.50;43.10;;;;;;5133483;27;37887;-48
2022/03/11 12:26:17;;;;;;;19.25;12.40;;;12.40;43.20;;;;;;5134385;27;36440;-50
2022/03/11 12:28:45;;;;;;;18.05;12.60;;;12.40;43.40;;;;;;5133963;27;38328;-50
2022/03/11 12:31:16;;;;;;;19.52;13.40;;;12.40;43.00;;;;;;5133729;27;39047;-51
2022/03/11 12:33:45;;;;;;;20.30;13.20;;;12.30;43.50;;;;;;5134693;27;36164;-48
2022/03/11 12:36:17;;;;;;;21.23;12.65;;;12.30;43.40;;;;;;5133872;27;37533;-49
2022/03/11 12:38:45;;;;;;;18.00;12.63;;;12.20;43.60;;;;;;5135885;27;40104;-50
2022/03/11 12:41:14;;;;;;;18.67;13.13;;;12.10;42.30;;;;;;5135448;27;38398;-49
2022/03/11 12:43:44;;;;;;;21.50;13.00;;;12.00;42.90;;;;;;5136736;27;38203;-50